Standish, Michigan
Current Conditions -  °F | °C
As of 5:32 PM on Wednesday 22 Oct 2014 (Local Time) from KIKW Reporting Station
Overcast Overcast  
Wind Chill: 48°   Ceiling: 2400
Heat Index: 48°   Visibility: 10mi
Dew Point: 38°   Wind: 3mph
Humidity: 67%   Direction: 120°ESE
Pressure: 30.32"   Gusts: NA
Location:  43.98°N, 83.96°W
Report Text: KIKW 222132Z AUTO 12003KT 10SM OVC024 09/03 A3032 RMK AO2 T00910033
Loading
Personal Weather Stations






























Interactive Weather Map New forecast layout! Learn more

10-Day Weather Forecast

Advertisements
Track Severe Weather on mobile